sensor_id;sensor_type;location;lat;lon;timestamp;P1;durP1;ratioP1;P2;durP2;ratioP2
77788;SDS011;66980;44.384;0.512;2023-04-15T00:01:06;4.50;;;1.20;;
77788;SDS011;66980;44.384;0.512;2023-04-15T00:03:32;2.60;;;1.10;;
77788;SDS011;66980;44.384;0.512;2023-04-15T00:05:58;4.15;;;1.08;;
77788;SDS011;66980;44.384;0.512;2023-04-15T00:08:24;3.30;;;1.17;;
77788;SDS011;66980;44.384;0.512;2023-04-15T00:10:49;2.58;;;1.15;;
77788;SDS011;66980;44.384;0.512;2023-04-15T00:13:15;4.68;;;1.20;;
77788;SDS011;66980;44.384;0.512;2023-04-15T00:15:40;4.45;;;0.80;;
77788;SDS011;66980;44.384;0.512;2023-04-15T00:18:06;6.20;;;1.73;;
77788;SDS011;66980;44.384;0.512;2023-04-15T00:20:33;5.18;;;1.38;;
77788;SDS011;66980;44.384;0.512;2023-04-15T00:22:59;4.20;;;1.05;;
77788;SDS011;66980;44.384;0.512;2023-04-15T00:25:24;4.93;;;1.55;;
77788;SDS011;66980;44.384;0.512;2023-04-15T00:27:50;2.90;;;0.95;;
77788;SDS011;66980;44.384;0.512;2023-04-15T00:30:15;5.78;;;1.52;;
77788;SDS011;66980;44.384;0.512;2023-04-15T00:32:41;4.40;;;1.00;;
77788;SDS011;66980;44.384;0.512;2023-04-15T00:35:07;2.33;;;1.10;;
77788;SDS011;66980;44.384;0.512;2023-04-15T00:37:33;4.85;;;1.30;;
77788;SDS011;66980;44.384;0.512;2023-04-15T00:39:59;6.53;;;0.95;;
77788;SDS011;66980;44.384;0.512;2023-04-15T00:42:25;4.72;;;1.10;;
77788;SDS011;66980;44.384;0.512;2023-04-15T00:44:51;2.60;;;1.20;;
77788;SDS011;66980;44.384;0.512;2023-04-15T00:47:17;2.80;;;1.10;;
77788;SDS011;66980;44.384;0.512;2023-04-15T00:49:43;3.90;;;1.58;;
77788;SDS011;66980;44.384;0.512;2023-04-15T00:52:09;1.98;;;1.08;;
77788;SDS011;66980;44.384;0.512;2023-04-15T00:54:34;3.70;;;1.05;;
77788;SDS011;66980;44.384;0.512;2023-04-15T00:57:00;3.83;;;0.98;;
77788;SDS011;66980;44.384;0.512;2023-04-15T00:59:26;3.03;;;0.85;;
77788;SDS011;66980;44.384;0.512;2023-04-15T01:01:51;2.42;;;1.00;;
77788;SDS011;66980;44.384;0.512;2023-04-15T01:04:17;2.65;;;0.85;;
77788;SDS011;66980;44.384;0.512;2023-04-15T01:06:42;3.58;;;1.33;;
77788;SDS011;66980;44.384;0.512;2023-04-15T01:09:08;4.18;;;1.13;;
77788;SDS011;66980;44.384;0.512;2023-04-15T01:11:33;4.72;;;0.90;;
77788;SDS011;66980;44.384;0.512;2023-04-15T01:13:59;1.55;;;0.63;;
77788;SDS011;66980;44.384;0.512;2023-04-15T01:16:25;5.25;;;1.10;;
77788;SDS011;66980;44.384;0.512;2023-04-15T01:18:52;2.75;;;1.15;;
77788;SDS011;66980;44.384;0.512;2023-04-15T01:21:18;3.88;;;1.30;;
77788;SDS011;66980;44.384;0.512;2023-04-15T01:23:44;4.63;;;1.30;;
77788;SDS011;66980;44.384;0.512;2023-04-15T01:26:11;3.42;;;1.25;;
77788;SDS011;66980;44.384;0.512;2023-04-15T01:28:37;6.18;;;0.93;;
77788;SDS011;66980;44.384;0.512;2023-04-15T01:31:06;5.57;;;1.40;;
77788;SDS011;66980;44.384;0.512;2023-04-15T01:33:39;2.83;;;1.10;;
77788;SDS011;66980;44.384;0.512;2023-04-15T01:36:06;3.22;;;0.93;;
77788;SDS011;66980;44.384;0.512;2023-04-15T01:38:34;4.25;;;1.45;;
77788;SDS011;66980;44.384;0.512;2023-04-15T01:41:00;2.00;;;0.90;;
77788;SDS011;66980;44.384;0.512;2023-04-15T01:43:25;4.20;;;1.10;;
77788;SDS011;66980;44.384;0.512;2023-04-15T01:45:52;5.65;;;0.90;;
77788;SDS011;66980;44.384;0.512;2023-04-15T01:48:17;2.25;;;0.90;;
77788;SDS011;66980;44.384;0.512;2023-04-15T01:50:43;4.18;;;1.17;;
77788;SDS011;66980;44.384;0.512;2023-04-15T01:53:09;5.70;;;1.23;;
77788;SDS011;66980;44.384;0.512;2023-04-15T01:55:35;1.67;;;1.02;;
77788;SDS011;66980;44.384;0.512;2023-04-15T01:58:01;5.00;;;0.85;;
77788;SDS011;66980;44.384;0.512;2023-04-15T02:00:26;6.00;;;1.02;;
77788;SDS011;66980;44.384;0.512;2023-04-15T02:02:52;1.83;;;0.82;;
77788;SDS011;66980;44.384;0.512;2023-04-15T02:05:18;4.72;;;0.93;;
77788;SDS011;66980;44.384;0.512;2023-04-15T02:07:43;5.28;;;0.88;;
77788;SDS011;66980;44.384;0.512;2023-04-15T02:10:09;3.15;;;0.85;;
77788;SDS011;66980;44.384;0.512;2023-04-15T02:12:37;2.53;;;0.90;;
77788;SDS011;66980;44.384;0.512;2023-04-15T02:15:02;5.82;;;1.17;;
77788;SDS011;66980;44.384;0.512;2023-04-15T02:17:28;2.58;;;0.98;;
77788;SDS011;66980;44.384;0.512;2023-04-15T02:19:54;1.83;;;1.00;;
77788;SDS011;66980;44.384;0.512;2023-04-15T02:22:20;5.05;;;1.13;;
77788;SDS011;66980;44.384;0.512;2023-04-15T02:24:46;4.00;;;0.80;;
77788;SDS011;66980;44.384;0.512;2023-04-15T02:27:15;2.95;;;0.85;;
77788;SDS011;66980;44.384;0.512;2023-04-15T02:29:42;2.30;;;0.90;;
77788;SDS011;66980;44.384;0.512;2023-04-15T02:32:08;2.78;;;1.20;;
77788;SDS011;66980;44.384;0.512;2023-04-15T02:34:33;3.08;;;0.82;;
77788;SDS011;66980;44.384;0.512;2023-04-15T02:36:59;6.13;;;1.05;;
77788;SDS011;66980;44.384;0.512;2023-04-15T02:39:25;2.45;;;0.80;;
77788;SDS011;66980;44.384;0.512;2023-04-15T02:41:51;2.95;;;0.73;;
77788;SDS011;66980;44.384;0.512;2023-04-15T02:44:16;5.43;;;1.08;;
77788;SDS011;66980;44.384;0.512;2023-04-15T02:46:46;3.28;;;1.20;;
77788;SDS011;66980;44.384;0.512;2023-04-15T02:49:15;2.00;;;0.80;;
77788;SDS011;66980;44.384;0.512;2023-04-15T02:51:40;2.85;;;0.80;;
77788;SDS011;66980;44.384;0.512;2023-04-15T02:54:06;2.05;;;0.75;;
77788;SDS011;66980;44.384;0.512;2023-04-15T02:56:32;2.35;;;0.68;;
77788;SDS011;66980;44.384;0.512;2023-04-15T02:58:58;5.20;;;0.90;;
77788;SDS011;66980;44.384;0.512;2023-04-15T03:01:23;3.08;;;0.95;;
77788;SDS011;66980;44.384;0.512;2023-04-15T03:03:50;2.28;;;0.88;;
77788;SDS011;66980;44.384;0.512;2023-04-15T03:06:15;2.72;;;0.98;;
77788;SDS011;66980;44.384;0.512;2023-04-15T03:08:41;2.95;;;1.27;;
77788;SDS011;66980;44.384;0.512;2023-04-15T03:11:06;1.80;;;0.50;;
77788;SDS011;66980;44.384;0.512;2023-04-15T03:13:32;3.35;;;0.52;;
77788;SDS011;66980;44.384;0.512;2023-04-15T03:15:57;1.67;;;0.75;;
77788;SDS011;66980;44.384;0.512;2023-04-15T03:18:23;1.98;;;1.02;;
77788;SDS011;66980;44.384;0.512;2023-04-15T03:20:48;2.53;;;0.80;;
77788;SDS011;66980;44.384;0.512;2023-04-15T03:23:14;1.92;;;0.75;;
77788;SDS011;66980;44.384;0.512;2023-04-15T03:25:40;1.30;;;0.60;;
77788;SDS011;66980;44.384;0.512;2023-04-15T03:28:06;1.30;;;0.55;;
77788;SDS011;66980;44.384;0.512;2023-04-15T03:30:31;4.82;;;0.93;;
77788;SDS011;66980;44.384;0.512;2023-04-15T03:32:57;3.22;;;0.70;;
77788;SDS011;66980;44.384;0.512;2023-04-15T03:35:22;0.98;;;0.52;;
77788;SDS011;66980;44.384;0.512;2023-04-15T03:37:48;1.55;;;0.70;;
77788;SDS011;66980;44.384;0.512;2023-04-15T03:40:13;2.17;;;0.60;;
77788;SDS011;66980;44.384;0.512;2023-04-15T03:42:39;2.03;;;0.50;;
77788;SDS011;66980;44.384;0.512;2023-04-15T03:45:04;3.30;;;0.82;;
77788;SDS011;66980;44.384;0.512;2023-04-15T03:47:31;1.95;;;1.00;;
77788;SDS011;66980;44.384;0.512;2023-04-15T03:49:57;1.42;;;0.52;;
77788;SDS011;66980;44.384;0.512;2023-04-15T03:52:22;1.95;;;0.63;;
77788;SDS011;66980;44.384;0.512;2023-04-15T03:54:48;2.75;;;0.75;;
77788;SDS011;66980;44.384;0.512;2023-04-15T03:57:13;2.80;;;0.70;;
77788;SDS011;66980;44.384;0.512;2023-04-15T03:59:39;2.60;;;0.60;;
77788;SDS011;66980;44.384;0.512;2023-04-15T04:02:05;3.65;;;0.82;;
77788;SDS011;66980;44.384;0.512;2023-04-15T04:04:31;2.33;;;0.68;;
77788;SDS011;66980;44.384;0.512;2023-04-15T04:06:58;3.35;;;0.60;;
77788;SDS011;66980;44.384;0.512;2023-04-15T04:09:25;1.95;;;0.45;;
77788;SDS011;66980;44.384;0.512;2023-04-15T04:11:50;3.00;;;0.55;;
77788;SDS011;66980;44.384;0.512;2023-04-15T04:14:16;1.80;;;0.52;;
77788;SDS011;66980;44.384;0.512;2023-04-15T04:16:41;0.73;;;0.50;;
77788;SDS011;66980;44.384;0.512;2023-04-15T04:19:07;1.15;;;0.50;;
77788;SDS011;66980;44.384;0.512;2023-04-15T04:21:32;3.67;;;0.45;;
77788;SDS011;66980;44.384;0.512;2023-04-15T04:23:58;0.93;;;0.52;;
77788;SDS011;66980;44.384;0.512;2023-04-15T04:26:24;1.45;;;0.30;;
77788;SDS011;66980;44.384;0.512;2023-04-15T04:28:50;0.85;;;0.50;;
77788;SDS011;66980;44.384;0.512;2023-04-15T04:31:15;2.70;;;0.95;;
77788;SDS011;66980;44.384;0.512;2023-04-15T04:33:41;3.38;;;0.60;;
77788;SDS011;66980;44.384;0.512;2023-04-15T04:36:06;1.52;;;0.40;;
77788;SDS011;66980;44.384;0.512;2023-04-15T04:38:32;5.35;;;1.00;;
77788;SDS011;66980;44.384;0.512;2023-04-15T04:40:57;1.55;;;0.30;;
77788;SDS011;66980;44.384;0.512;2023-04-15T04:43:22;2.88;;;0.73;;
77788;SDS011;66980;44.384;0.512;2023-04-15T04:45:48;2.25;;;1.20;;
77788;SDS011;66980;44.384;0.512;2023-04-15T04:48:13;4.13;;;1.00;;
77788;SDS011;66980;44.384;0.512;2023-04-15T04:50:39;2.15;;;1.15;;
77788;SDS011;66980;44.384;0.512;2023-04-15T04:53:05;2.03;;;0.63;;
77788;SDS011;66980;44.384;0.512;2023-04-15T04:55:30;1.70;;;0.60;;
77788;SDS011;66980;44.384;0.512;2023-04-15T04:57:56;7.28;;;0.85;;
77788;SDS011;66980;44.384;0.512;2023-04-15T05:00:21;3.58;;;0.52;;
77788;SDS011;66980;44.384;0.512;2023-04-15T05:02:47;3.00;;;0.80;;
77788;SDS011;66980;44.384;0.512;2023-04-15T05:05:12;3.22;;;0.70;;
77788;SDS011;66980;44.384;0.512;2023-04-15T05:07:38;8.80;;;0.63;;
77788;SDS011;66980;44.384;0.512;2023-04-15T05:10:03;3.42;;;0.68;;
77788;SDS011;66980;44.384;0.512;2023-04-15T05:12:30;4.22;;;0.52;;
77788;SDS011;66980;44.384;0.512;2023-04-15T05:14:56;6.35;;;0.65;;
77788;SDS011;66980;44.384;0.512;2023-04-15T05:17:22;3.00;;;0.70;;
77788;SDS011;66980;44.384;0.512;2023-04-15T05:19:47;2.85;;;0.52;;
77788;SDS011;66980;44.384;0.512;2023-04-15T05:22:13;11.30;;;0.70;;
77788;SDS011;66980;44.384;0.512;2023-04-15T05:24:38;6.30;;;0.73;;
77788;SDS011;66980;44.384;0.512;2023-04-15T05:27:04;13.05;;;1.02;;
77788;SDS011;66980;44.384;0.512;2023-04-15T05:29:29;5.07;;;1.05;;
77788;SDS011;66980;44.384;0.512;2023-04-15T05:31:55;5.18;;;0.63;;
77788;SDS011;66980;44.384;0.512;2023-04-15T05:34:20;6.05;;;0.57;;
77788;SDS011;66980;44.384;0.512;2023-04-15T05:36:46;8.40;;;0.90;;
77788;SDS011;66980;44.384;0.512;2023-04-15T05:39:11;6.07;;;0.68;;
77788;SDS011;66980;44.384;0.512;2023-04-15T05:41:37;5.43;;;0.50;;
77788;SDS011;66980;44.384;0.512;2023-04-15T05:44:03;8.05;;;0.75;;
77788;SDS011;66980;44.384;0.512;2023-04-15T05:46:28;6.25;;;0.50;;
77788;SDS011;66980;44.384;0.512;2023-04-15T05:48:54;2.60;;;0.70;;
77788;SDS011;66980;44.384;0.512;2023-04-15T05:51:19;3.55;;;0.50;;
77788;SDS011;66980;44.384;0.512;2023-04-15T05:53:45;10.65;;;0.70;;
77788;SDS011;66980;44.384;0.512;2023-04-15T05:56:11;3.30;;;0.90;;
77788;SDS011;66980;44.384;0.512;2023-04-15T05:58:36;4.60;;;0.90;;
77788;SDS011;66980;44.384;0.512;2023-04-15T06:01:02;7.50;;;1.30;;
77788;SDS011;66980;44.384;0.512;2023-04-15T06:03:28;3.28;;;1.13;;
77788;SDS011;66980;44.384;0.512;2023-04-15T06:05:54;9.23;;;1.98;;
77788;SDS011;66980;44.384;0.512;2023-04-15T06:08:20;24.73;;;9.32;;
77788;SDS011;66980;44.384;0.512;2023-04-15T06:10:46;29.70;;;14.43;;
77788;SDS011;66980;44.384;0.512;2023-04-15T06:13:11;42.58;;;18.83;;
77788;SDS011;66980;44.384;0.512;2023-04-15T06:15:37;73.00;;;29.13;;
77788;SDS011;66980;44.384;0.512;2023-04-15T06:18:02;76.45;;;38.20;;
77788;SDS011;66980;44.384;0.512;2023-04-15T06:20:28;88.85;;;39.42;;
77788;SDS011;66980;44.384;0.512;2023-04-15T06:22:53;69.45;;;36.85;;
77788;SDS011;66980;44.384;0.512;2023-04-15T06:25:19;63.58;;;30.77;;
77788;SDS011;66980;44.384;0.512;2023-04-15T06:27:44;61.70;;;30.77;;
77788;SDS011;66980;44.384;0.512;2023-04-15T06:30:10;66.75;;;27.85;;
77788;SDS011;66980;44.384;0.512;2023-04-15T06:32:36;55.05;;;27.17;;
77788;SDS011;66980;44.384;0.512;2023-04-15T06:35:02;53.42;;;30.02;;
77788;SDS011;66980;44.384;0.512;2023-04-15T06:37:28;59.47;;;26.42;;
77788;SDS011;66980;44.384;0.512;2023-04-15T06:39:53;57.03;;;28.05;;
77788;SDS011;66980;44.384;0.512;2023-04-15T06:42:19;60.20;;;26.95;;
77788;SDS011;66980;44.384;0.512;2023-04-15T06:44:45;56.45;;;25.52;;
77788;SDS011;66980;44.384;0.512;2023-04-15T06:47:10;58.65;;;26.25;;
77788;SDS011;66980;44.384;0.512;2023-04-15T06:49:38;52.22;;;25.95;;
77788;SDS011;66980;44.384;0.512;2023-04-15T06:52:04;45.35;;;26.55;;
77788;SDS011;66980;44.384;0.512;2023-04-15T06:54:30;61.92;;;23.52;;
77788;SDS011;66980;44.384;0.512;2023-04-15T06:56:55;56.67;;;23.75;;
77788;SDS011;66980;44.384;0.512;2023-04-15T06:59:20;45.75;;;22.20;;
77788;SDS011;66980;44.384;0.512;2023-04-15T07:01:46;48.38;;;21.98;;
77788;SDS011;66980;44.384;0.512;2023-04-15T07:04:11;48.70;;;19.83;;
77788;SDS011;66980;44.384;0.512;2023-04-15T07:06:37;43.60;;;21.75;;
77788;SDS011;66980;44.384;0.512;2023-04-15T07:09:02;43.85;;;21.33;;
77788;SDS011;66980;44.384;0.512;2023-04-15T07:11:29;53.65;;;20.33;;
77788;SDS011;66980;44.384;0.512;2023-04-15T07:13:54;51.67;;;19.38;;
77788;SDS011;66980;44.384;0.512;2023-04-15T07:16:21;44.40;;;20.13;;
77788;SDS011;66980;44.384;0.512;2023-04-15T07:18:47;43.47;;;17.98;;
77788;SDS011;66980;44.384;0.512;2023-04-15T07:21:12;38.42;;;17.30;;
77788;SDS011;66980;44.384;0.512;2023-04-15T07:23:38;36.70;;;16.15;;
77788;SDS011;66980;44.384;0.512;2023-04-15T07:26:03;37.40;;;14.40;;
77788;SDS011;66980;44.384;0.512;2023-04-15T07:28:29;29.02;;;10.50;;
77788;SDS011;66980;44.384;0.512;2023-04-15T07:30:54;29.50;;;14.40;;
77788;SDS011;66980;44.384;0.512;2023-04-15T07:33:21;36.38;;;13.20;;
77788;SDS011;66980;44.384;0.512;2023-04-15T07:35:47;27.65;;;13.60;;
77788;SDS011;66980;44.384;0.512;2023-04-15T07:38:12;24.80;;;12.45;;
77788;SDS011;66980;44.384;0.512;2023-04-15T07:40:38;27.30;;;13.02;;
77788;SDS011;66980;44.384;0.512;2023-04-15T07:43:04;20.02;;;10.35;;
77788;SDS011;66980;44.384;0.512;2023-04-15T07:45:30;22.80;;;11.13;;
77788;SDS011;66980;44.384;0.512;2023-04-15T07:47:56;29.58;;;11.25;;
77788;SDS011;66980;44.384;0.512;2023-04-15T07:50:21;22.50;;;10.60;;
77788;SDS011;66980;44.384;0.512;2023-04-15T07:52:47;21.17;;;11.00;;
77788;SDS011;66980;44.384;0.512;2023-04-15T07:55:16;23.13;;;9.52;;
77788;SDS011;66980;44.384;0.512;2023-04-15T07:57:45;35.25;;;9.52;;
77788;SDS011;66980;44.384;0.512;2023-04-15T08:00:11;45.40;;;9.88;;
77788;SDS011;66980;44.384;0.512;2023-04-15T08:02:38;48.50;;;9.98;;
77788;SDS011;66980;44.384;0.512;2023-04-15T08:05:03;41.75;;;8.77;;
77788;SDS011;66980;44.384;0.512;2023-04-15T08:07:29;26.15;;;8.75;;
77788;SDS011;66980;44.384;0.512;2023-04-15T08:09:55;38.70;;;9.43;;
77788;SDS011;66980;44.384;0.512;2023-04-15T08:12:21;30.20;;;12.77;;
77788;SDS011;66980;44.384;0.512;2023-04-15T08:14:47;53.95;;;19.83;;
77788;SDS011;66980;44.384;0.512;2023-04-15T08:17:13;53.58;;;17.45;;
77788;SDS011;66980;44.384;0.512;2023-04-15T08:19:39;38.42;;;16.23;;
77788;SDS011;66980;44.384;0.512;2023-04-15T08:22:06;43.15;;;16.10;;
77788;SDS011;66980;44.384;0.512;2023-04-15T08:24:32;45.65;;;17.10;;
77788;SDS011;66980;44.384;0.512;2023-04-15T08:26:58;35.85;;;16.00;;
77788;SDS011;66980;44.384;0.512;2023-04-15T08:29:25;33.88;;;14.25;;
77788;SDS011;66980;44.384;0.512;2023-04-15T08:31:51;35.70;;;14.48;;
77788;SDS011;66980;44.384;0.512;2023-04-15T08:34:17;34.17;;;12.77;;
77788;SDS011;66980;44.384;0.512;2023-04-15T08:36:43;38.30;;;14.50;;
77788;SDS011;66980;44.384;0.512;2023-04-15T08:39:08;26.90;;;10.85;;
77788;SDS011;66980;44.384;0.512;2023-04-15T08:41:44;39.97;;;9.93;;
77788;SDS011;66980;44.384;0.512;2023-04-15T08:44:20;24.65;;;6.55;;
77788;SDS011;66980;44.384;0.512;2023-04-15T08:49:14;22.67;;;6.75;;
77788;SDS011;66980;44.384;0.512;2023-04-15T08:51:41;22.67;;;5.53;;
77788;SDS011;66980;44.384;0.512;2023-04-15T08:54:07;37.10;;;5.78;;
77788;SDS011;66980;44.384;0.512;2023-04-15T08:56:34;31.35;;;4.85;;
77788;SDS011;66980;44.384;0.512;2023-04-15T08:59:01;31.60;;;2.92;;
77788;SDS011;66980;44.384;0.512;2023-04-15T09:01:27;20.88;;;3.60;;
77788;SDS011;66980;44.384;0.512;2023-04-15T09:03:53;29.92;;;4.32;;
77788;SDS011;66980;44.384;0.512;2023-04-15T09:06:21;15.77;;;3.33;;
77788;SDS011;66980;44.384;0.512;2023-04-15T09:08:48;21.50;;;1.77;;
77788;SDS011;66980;44.384;0.512;2023-04-15T09:11:15;45.22;;;3.88;;
77788;SDS011;66980;44.384;0.512;2023-04-15T09:13:44;40.30;;;4.60;;
77788;SDS011;66980;44.384;0.512;2023-04-15T09:16:10;103.97;;;11.65;;
77788;SDS011;66980;44.384;0.512;2023-04-15T09:18:37;61.60;;;8.38;;
77788;SDS011;66980;44.384;0.512;2023-04-15T09:21:10;37.83;;;2.97;;
77788;SDS011;66980;44.384;0.512;2023-04-15T09:23:38;37.05;;;3.25;;
77788;SDS011;66980;44.384;0.512;2023-04-15T09:26:04;22.33;;;3.40;;
77788;SDS011;66980;44.384;0.512;2023-04-15T09:28:30;20.83;;;2.38;;
77788;SDS011;66980;44.384;0.512;2023-04-15T09:30:59;22.92;;;2.70;;
77788;SDS011;66980;44.384;0.512;2023-04-15T09:33:27;15.85;;;2.25;;
77788;SDS011;66980;44.384;0.512;2023-04-15T09:35:58;26.23;;;2.53;;
77788;SDS011;66980;44.384;0.512;2023-04-15T09:38:25;24.73;;;3.00;;
77788;SDS011;66980;44.384;0.512;2023-04-15T09:40:51;25.75;;;2.97;;
77788;SDS011;66980;44.384;0.512;2023-04-15T09:43:17;21.02;;;2.88;;
77788;SDS011;66980;44.384;0.512;2023-04-15T09:45:51;18.52;;;2.13;;
77788;SDS011;66980;44.384;0.512;2023-04-15T09:48:18;11.25;;;1.30;;
77788;SDS011;66980;44.384;0.512;2023-04-15T09:50:58;3.78;;;0.82;;
77788;SDS011;66980;44.384;0.512;2023-04-15T09:53:25;7.43;;;0.93;;
77788;SDS011;66980;44.384;0.512;2023-04-15T09:55:52;6.38;;;1.05;;
77788;SDS011;66980;44.384;0.512;2023-04-15T10:00:53;2.45;;;0.40;;
77788;SDS011;66980;44.384;0.512;2023-04-15T10:03:24;4.95;;;0.82;;
77788;SDS011;66980;44.384;0.512;2023-04-15T10:05:52;1.15;;;0.60;;
77788;SDS011;66980;44.384;0.512;2023-04-15T10:08:20;2.95;;;0.55;;
77788;SDS011;66980;44.384;0.512;2023-04-15T10:10:49;3.22;;;0.40;;
77788;SDS011;66980;44.384;0.512;2023-04-15T10:13:17;5.88;;;0.77;;
77788;SDS011;66980;44.384;0.512;2023-04-15T10:15:46;2.67;;;0.95;;
77788;SDS011;66980;44.384;0.512;2023-04-15T10:18:15;1.67;;;0.43;;
77788;SDS011;66980;44.384;0.512;2023-04-15T10:20:45;5.55;;;1.00;;
77788;SDS011;66980;44.384;0.512;2023-04-15T10:23:12;2.85;;;0.73;;
77788;SDS011;66980;44.384;0.512;2023-04-15T10:25:37;1.73;;;0.25;;
77788;SDS011;66980;44.384;0.512;2023-04-15T10:28:03;5.28;;;0.70;;
77788;SDS011;66980;44.384;0.512;2023-04-15T10:30:32;0.73;;;0.30;;
77788;SDS011;66980;44.384;0.512;2023-04-15T10:32:58;4.05;;;0.50;;
77788;SDS011;66980;44.384;0.512;2023-04-15T10:35:25;3.50;;;0.45;;
77788;SDS011;66980;44.384;0.512;2023-04-15T10:37:51;1.77;;;0.20;;
77788;SDS011;66980;44.384;0.512;2023-04-15T10:40:23;3.20;;;0.52;;
77788;SDS011;66980;44.384;0.512;2023-04-15T10:42:50;1.58;;;0.30;;
77788;SDS011;66980;44.384;0.512;2023-04-15T10:45:15;4.13;;;0.65;;
77788;SDS011;66980;44.384;0.512;2023-04-15T10:47:42;5.80;;;0.93;;
77788;SDS011;66980;44.384;0.512;2023-04-15T10:50:08;5.90;;;0.65;;
77788;SDS011;66980;44.384;0.512;2023-04-15T10:52:34;2.67;;;0.50;;
77788;SDS011;66980;44.384;0.512;2023-04-15T10:55:11;3.38;;;0.50;;
77788;SDS011;66980;44.384;0.512;2023-04-15T10:57:40;2.80;;;0.45;;
77788;SDS011;66980;44.384;0.512;2023-04-15T11:02:43;8.20;;;1.60;;
77788;SDS011;66980;44.384;0.512;2023-04-15T11:05:09;6.03;;;1.77;;
77788;SDS011;66980;44.384;0.512;2023-04-15T11:07:40;7.50;;;3.60;;
77788;SDS011;66980;44.384;0.512;2023-04-15T11:12:42;9.43;;;3.50;;
77788;SDS011;66980;44.384;0.512;2023-04-15T11:17:53;15.18;;;3.95;;
77788;SDS011;66980;44.384;0.512;2023-04-15T11:20:20;7.50;;;4.72;;
77788;SDS011;66980;44.384;0.512;2023-04-15T11:22:50;19.52;;;9.35;;
77788;SDS011;66980;44.384;0.512;2023-04-15T11:25:23;51.22;;;21.25;;
77788;SDS011;66980;44.384;0.512;2023-04-15T11:27:50;91.88;;;43.83;;
77788;SDS011;66980;44.384;0.512;2023-04-15T11:30:26;148.00;;;80.22;;
77788;SDS011;66980;44.384;0.512;2023-04-15T11:32:54;106.57;;;50.60;;
77788;SDS011;66980;44.384;0.512;2023-04-15T11:35:22;142.38;;;75.78;;
77788;SDS011;66980;44.384;0.512;2023-04-15T11:37:48;132.77;;;69.88;;
77788;SDS011;66980;44.384;0.512;2023-04-15T11:40:14;104.65;;;55.40;;
77788;SDS011;66980;44.384;0.512;2023-04-15T11:42:44;90.95;;;52.10;;
77788;SDS011;66980;44.384;0.512;2023-04-15T11:45:13;80.75;;;43.17;;
77788;SDS011;66980;44.384;0.512;2023-04-15T11:47:40;84.82;;;44.28;;
77788;SDS011;66980;44.384;0.512;2023-04-15T11:50:19;78.70;;;39.40;;
77788;SDS011;66980;44.384;0.512;2023-04-15T11:52:56;76.60;;;38.72;;
77788;SDS011;66980;44.384;0.512;2023-04-15T11:55:23;74.85;;;36.08;;
77788;SDS011;66980;44.384;0.512;2023-04-15T11:57:49;72.63;;;36.97;;
77788;SDS011;66980;44.384;0.512;2023-04-15T12:00:15;95.15;;;54.80;;
77788;SDS011;66980;44.384;0.512;2023-04-15T12:02:42;60.50;;;32.95;;
77788;SDS011;66980;44.384;0.512;2023-04-15T12:05:08;64.38;;;37.40;;
77788;SDS011;66980;44.384;0.512;2023-04-15T12:10:24;79.57;;;40.92;;
77788;SDS011;66980;44.384;0.512;2023-04-15T12:12:51;59.17;;;32.33;;
77788;SDS011;66980;44.384;0.512;2023-04-15T12:15:20;88.70;;;49.47;;
77788;SDS011;66980;44.384;0.512;2023-04-15T12:17:46;69.45;;;41.33;;
77788;SDS011;66980;44.384;0.512;2023-04-15T12:20:12;81.28;;;48.08;;
77788;SDS011;66980;44.384;0.512;2023-04-15T12:22:38;91.35;;;50.17;;
77788;SDS011;66980;44.384;0.512;2023-04-15T12:25:03;117.22;;;68.25;;
77788;SDS011;66980;44.384;0.512;2023-04-15T12:27:30;94.35;;;51.58;;
77788;SDS011;66980;44.384;0.512;2023-04-15T12:30:03;92.40;;;49.00;;
77788;SDS011;66980;44.384;0.512;2023-04-15T12:32:29;100.53;;;53.80;;
77788;SDS011;66980;44.384;0.512;2023-04-15T12:34:59;126.72;;;64.53;;
77788;SDS011;66980;44.384;0.512;2023-04-15T12:37:25;116.38;;;59.95;;
77788;SDS011;66980;44.384;0.512;2023-04-15T12:39:51;105.28;;;52.45;;
77788;SDS011;66980;44.384;0.512;2023-04-15T12:42:18;139.90;;;69.18;;
77788;SDS011;66980;44.384;0.512;2023-04-15T12:44:44;129.80;;;64.13;;
77788;SDS011;66980;44.384;0.512;2023-04-15T12:47:11;112.78;;;58.25;;
77788;SDS011;66980;44.384;0.512;2023-04-15T12:49:36;108.65;;;55.85;;
77788;SDS011;66980;44.384;0.512;2023-04-15T12:52:03;111.22;;;56.55;;
77788;SDS011;66980;44.384;0.512;2023-04-15T12:54:30;103.85;;;53.55;;
77788;SDS011;66980;44.384;0.512;2023-04-15T12:56:56;103.07;;;50.63;;
77788;SDS011;66980;44.384;0.512;2023-04-15T12:59:22;97.13;;;49.95;;
77788;SDS011;66980;44.384;0.512;2023-04-15T13:01:48;95.60;;;50.00;;
77788;SDS011;66980;44.384;0.512;2023-04-15T13:04:14;84.55;;;47.95;;
77788;SDS011;66980;44.384;0.512;2023-04-15T13:06:41;86.10;;;45.38;;
77788;SDS011;66980;44.384;0.512;2023-04-15T13:09:07;90.40;;;44.05;;
77788;SDS011;66980;44.384;0.512;2023-04-15T13:11:32;93.53;;;45.45;;
77788;SDS011;66980;44.384;0.512;2023-04-15T13:14:03;85.30;;;44.42;;
77788;SDS011;66980;44.384;0.512;2023-04-15T13:16:29;81.82;;;40.65;;
77788;SDS011;66980;44.384;0.512;2023-04-15T13:18:56;73.85;;;36.25;;
77788;SDS011;66980;44.384;0.512;2023-04-15T13:21:22;60.63;;;32.65;;
77788;SDS011;66980;44.384;0.512;2023-04-15T13:23:48;55.63;;;27.60;;
77788;SDS011;66980;44.384;0.512;2023-04-15T13:26:14;54.38;;;28.40;;
77788;SDS011;66980;44.384;0.512;2023-04-15T13:28:41;49.72;;;26.13;;
77788;SDS011;66980;44.384;0.512;2023-04-15T13:31:07;45.75;;;22.75;;
77788;SDS011;66980;44.384;0.512;2023-04-15T13:33:32;45.55;;;22.20;;
77788;SDS011;66980;44.384;0.512;2023-04-15T13:35:58;43.97;;;21.45;;
77788;SDS011;66980;44.384;0.512;2023-04-15T13:38:23;42.72;;;20.20;;
77788;SDS011;66980;44.384;0.512;2023-04-15T13:40:49;34.08;;;16.60;;
77788;SDS011;66980;44.384;0.512;2023-04-15T13:43:15;30.60;;;13.98;;
77788;SDS011;66980;44.384;0.512;2023-04-15T13:45:41;27.25;;;14.23;;
77788;SDS011;66980;44.384;0.512;2023-04-15T13:48:07;25.67;;;12.23;;
77788;SDS011;66980;44.384;0.512;2023-04-15T13:50:33;20.40;;;10.98;;
77788;SDS011;66980;44.384;0.512;2023-04-15T13:52:58;20.95;;;10.38;;
77788;SDS011;66980;44.384;0.512;2023-04-15T13:55:24;18.95;;;10.43;;
77788;SDS011;66980;44.384;0.512;2023-04-15T13:57:50;18.27;;;9.45;;
77788;SDS011;66980;44.384;0.512;2023-04-15T14:00:16;19.02;;;9.25;;
77788;SDS011;66980;44.384;0.512;2023-04-15T14:02:41;16.27;;;9.20;;
77788;SDS011;66980;44.384;0.512;2023-04-15T14:05:07;14.95;;;6.57;;
77788;SDS011;66980;44.384;0.512;2023-04-15T14:07:33;13.73;;;6.35;;
77788;SDS011;66980;44.384;0.512;2023-04-15T14:10:00;13.10;;;6.53;;
77788;SDS011;66980;44.384;0.512;2023-04-15T14:12:26;12.77;;;5.95;;
77788;SDS011;66980;44.384;0.512;2023-04-15T14:14:51;11.05;;;4.72;;
77788;SDS011;66980;44.384;0.512;2023-04-15T14:17:17;9.25;;;5.03;;
77788;SDS011;66980;44.384;0.512;2023-04-15T14:19:42;9.02;;;4.80;;
77788;SDS011;66980;44.384;0.512;2023-04-15T14:22:08;5.50;;;3.38;;
77788;SDS011;66980;44.384;0.512;2023-04-15T14:24:33;4.38;;;2.97;;
77788;SDS011;66980;44.384;0.512;2023-04-15T14:26:59;4.88;;;2.88;;
77788;SDS011;66980;44.384;0.512;2023-04-15T14:29:26;7.53;;;2.28;;
77788;SDS011;66980;44.384;0.512;2023-04-15T14:31:52;3.25;;;1.63;;
77788;SDS011;66980;44.384;0.512;2023-04-15T14:34:18;2.83;;;2.53;;
77788;SDS011;66980;44.384;0.512;2023-04-15T14:36:46;3.83;;;1.90;;
77788;SDS011;66980;44.384;0.512;2023-04-15T14:39:12;4.57;;;2.28;;
77788;SDS011;66980;44.384;0.512;2023-04-15T14:41:38;3.88;;;1.65;;
77788;SDS011;66980;44.384;0.512;2023-04-15T14:44:03;6.05;;;1.73;;
77788;SDS011;66980;44.384;0.512;2023-04-15T14:46:29;4.07;;;1.73;;